sensor_id;sensor_type;location;lat;lon;timestamp;temperature;humidity
57218;DHT22;43078;52.972;6.482;2023-05-07T00:02:04;15.40;99.90
57218;DHT22;43078;52.972;6.482;2023-05-07T00:04:30;15.40;99.90
57218;DHT22;43078;52.972;6.482;2023-05-07T00:07:16;15.40;99.90
57218;DHT22;43078;52.972;6.482;2023-05-07T00:09:43;15.30;99.90
57218;DHT22;43078;52.972;6.482;2023-05-07T00:12:09;15.30;99.90
57218;DHT22;43078;52.972;6.482;2023-05-07T00:14:35;15.30;99.90
57218;DHT22;43078;52.972;6.482;2023-05-07T00:17:06;15.30;99.90
57218;DHT22;43078;52.972;6.482;2023-05-07T00:19:34;15.20;99.90
57218;DHT22;43078;52.972;6.482;2023-05-07T00:22:15;15.30;99.90
57218;DHT22;43078;52.972;6.482;2023-05-07T00:24:41;15.20;99.90
57218;DHT22;43078;52.972;6.482;2023-05-07T00:27:07;15.20;99.90
57218;DHT22;43078;52.972;6.482;2023-05-07T00:29:34;15.20;99.90
57218;DHT22;43078;52.972;6.482;2023-05-07T00:32:02;15.10;99.90
57218;DHT22;43078;52.972;6.482;2023-05-07T00:34:28;15.10;99.90
57218;DHT22;43078;52.972;6.482;2023-05-07T00:36:55;15.10;99.90
57218;DHT22;43078;52.972;6.482;2023-05-07T00:39:20;15.10;99.90
57218;DHT22;43078;52.972;6.482;2023-05-07T00:41:46;15.10;99.90
57218;DHT22;43078;52.972;6.482;2023-05-07T00:44:13;15.10;99.90
57218;DHT22;43078;52.972;6.482;2023-05-07T00:46:41;15.10;99.90
57218;DHT22;43078;52.972;6.482;2023-05-07T00:49:07;15.00;99.90
57218;DHT22;43078;52.972;6.482;2023-05-07T00:51:39;15.00;99.90
57218;DHT22;43078;52.972;6.482;2023-05-07T00:54:04;15.00;99.90
57218;DHT22;43078;52.972;6.482;2023-05-07T00:56:31;15.00;99.90
57218;DHT22;43078;52.972;6.482;2023-05-07T01:02:06;14.90;99.90
57218;DHT22;43078;52.972;6.482;2023-05-07T01:04:35;14.90;99.90
57218;DHT22;43078;52.972;6.482;2023-05-07T01:07:10;14.90;99.90
57218;DHT22;43078;52.972;6.482;2023-05-07T01:09:36;14.80;99.90
57218;DHT22;43078;52.972;6.482;2023-05-07T01:12:23;14.90;99.90
57218;DHT22;43078;52.972;6.482;2023-05-07T01:14:53;14.80;99.90
57218;DHT22;43078;52.972;6.482;2023-05-07T01:17:40;14.80;99.90
57218;DHT22;43078;52.972;6.482;2023-05-07T01:20:28;14.80;99.90
57218;DHT22;43078;52.972;6.482;2023-05-07T01:22:54;14.80;99.90
57218;DHT22;43078;52.972;6.482;2023-05-07T01:25:22;14.80;99.90
57218;DHT22;43078;52.972;6.482;2023-05-07T01:27:48;14.80;99.90
57218;DHT22;43078;52.972;6.482;2023-05-07T01:30:17;14.80;99.90
57218;DHT22;43078;52.972;6.482;2023-05-07T01:36:03;14.70;99.90
57218;DHT22;43078;52.972;6.482;2023-05-07T01:38:32;14.70;99.90
57218;DHT22;43078;52.972;6.482;2023-05-07T01:41:24;14.70;99.90
57218;DHT22;43078;52.972;6.482;2023-05-07T01:43:51;14.70;99.90
57218;DHT22;43078;52.972;6.482;2023-05-07T01:46:18;14.70;99.90
57218;DHT22;43078;52.972;6.482;2023-05-07T01:48:45;14.60;99.90
57218;DHT22;43078;52.972;6.482;2023-05-07T01:51:11;14.60;99.90
57218;DHT22;43078;52.972;6.482;2023-05-07T01:53:39;14.60;99.90
57218;DHT22;43078;52.972;6.482;2023-05-07T01:56:04;14.60;99.90
57218;DHT22;43078;52.972;6.482;2023-05-07T01:58:30;14.60;99.90
57218;DHT22;43078;52.972;6.482;2023-05-07T02:00:56;14.60;99.90
57218;DHT22;43078;52.972;6.482;2023-05-07T02:03:22;14.50;99.90
57218;DHT22;43078;52.972;6.482;2023-05-07T02:05:50;14.60;99.90
57218;DHT22;43078;52.972;6.482;2023-05-07T02:08:19;14.50;99.90
57218;DHT22;43078;52.972;6.482;2023-05-07T02:10:56;14.50;99.90
57218;DHT22;43078;52.972;6.482;2023-05-07T02:13:30;14.40;99.90
57218;DHT22;43078;52.972;6.482;2023-05-07T02:15:56;14.40;99.90
57218;DHT22;43078;52.972;6.482;2023-05-07T02:18:21;14.40;99.90
57218;DHT22;43078;52.972;6.482;2023-05-07T02:20:47;14.40;99.90
57218;DHT22;43078;52.972;6.482;2023-05-07T02:23:13;14.40;99.90
57218;DHT22;43078;52.972;6.482;2023-05-07T02:25:38;14.40;99.90
57218;DHT22;43078;52.972;6.482;2023-05-07T02:28:04;14.30;99.90
57218;DHT22;43078;52.972;6.482;2023-05-07T02:30:30;14.30;99.90
57218;DHT22;43078;52.972;6.482;2023-05-07T02:32:55;14.30;99.90
57218;DHT22;43078;52.972;6.482;2023-05-07T02:35:21;14.30;99.90
57218;DHT22;43078;52.972;6.482;2023-05-07T02:37:47;14.20;99.90
57218;DHT22;43078;52.972;6.482;2023-05-07T02:40:13;14.20;99.90
57218;DHT22;43078;52.972;6.482;2023-05-07T02:42:38;14.20;99.90
57218;DHT22;43078;52.972;6.482;2023-05-07T02:45:05;14.20;99.90
57218;DHT22;43078;52.972;6.482;2023-05-07T02:47:45;14.10;99.90
57218;DHT22;43078;52.972;6.482;2023-05-07T02:50:17;14.10;99.90
57218;DHT22;43078;52.972;6.482;2023-05-07T02:53:02;14.10;99.90
57218;DHT22;43078;52.972;6.482;2023-05-07T02:55:28;14.00;99.90
57218;DHT22;43078;52.972;6.482;2023-05-07T02:57:53;14.00;99.90
57218;DHT22;43078;52.972;6.482;2023-05-07T03:00:20;14.00;99.90
57218;DHT22;43078;52.972;6.482;2023-05-07T03:02:45;14.00;99.90
57218;DHT22;43078;52.972;6.482;2023-05-07T03:05:11;13.90;99.90
57218;DHT22;43078;52.972;6.482;2023-05-07T03:07:38;13.90;99.90
57218;DHT22;43078;52.972;6.482;2023-05-07T03:10:04;13.90;99.90
57218;DHT22;43078;52.972;6.482;2023-05-07T03:12:30;13.90;99.90
57218;DHT22;43078;52.972;6.482;2023-05-07T03:14:56;13.90;99.90
57218;DHT22;43078;52.972;6.482;2023-05-07T03:17:24;13.90;99.90
57218;DHT22;43078;52.972;6.482;2023-05-07T03:19:50;13.90;99.90
57218;DHT22;43078;52.972;6.482;2023-05-07T03:22:18;13.80;99.90
57218;DHT22;43078;52.972;6.482;2023-05-07T03:24:44;13.80;99.90
57218;DHT22;43078;52.972;6.482;2023-05-07T03:27:10;13.90;99.90
57218;DHT22;43078;52.972;6.482;2023-05-07T03:29:35;13.80;99.90
57218;DHT22;43078;52.972;6.482;2023-05-07T03:32:01;13.80;99.90
57218;DHT22;43078;52.972;6.482;2023-05-07T03:37:21;13.80;99.90
57218;DHT22;43078;52.972;6.482;2023-05-07T03:40:10;13.70;99.90
57218;DHT22;43078;52.972;6.482;2023-05-07T03:42:38;13.70;99.90
57218;DHT22;43078;52.972;6.482;2023-05-07T03:45:08;13.70;99.90
57218;DHT22;43078;52.972;6.482;2023-05-07T03:47:34;13.60;99.90
57218;DHT22;43078;52.972;6.482;2023-05-07T03:50:00;13.70;99.90
57218;DHT22;43078;52.972;6.482;2023-05-07T03:52:26;13.70;99.90
57218;DHT22;43078;52.972;6.482;2023-05-07T03:54:55;13.70;99.90
57218;DHT22;43078;52.972;6.482;2023-05-07T03:57:20;13.60;99.90
57218;DHT22;43078;52.972;6.482;2023-05-07T03:59:46;13.60;99.90
57218;DHT22;43078;52.972;6.482;2023-05-07T04:02:14;13.60;99.90
57218;DHT22;43078;52.972;6.482;2023-05-07T04:04:42;13.60;99.90
57218;DHT22;43078;52.972;6.482;2023-05-07T04:07:08;13.60;99.90
57218;DHT22;43078;52.972;6.482;2023-05-07T04:09:34;13.50;99.90
57218;DHT22;43078;52.972;6.482;2023-05-07T04:11:59;13.60;99.90
57218;DHT22;43078;52.972;6.482;2023-05-07T04:14:26;13.60;99.90
57218;DHT22;43078;52.972;6.482;2023-05-07T04:16:52;13.50;99.90
57218;DHT22;43078;52.972;6.482;2023-05-07T04:19:18;13.50;99.90
57218;DHT22;43078;52.972;6.482;2023-05-07T04:21:44;13.50;99.90
57218;DHT22;43078;52.972;6.482;2023-05-07T04:24:09;13.40;99.90
57218;DHT22;43078;52.972;6.482;2023-05-07T04:26:35;13.40;99.90
57218;DHT22;43078;52.972;6.482;2023-05-07T04:29:01;13.40;99.90
57218;DHT22;43078;52.972;6.482;2023-05-07T04:31:26;13.40;99.90
57218;DHT22;43078;52.972;6.482;2023-05-07T04:33:52;13.40;99.90
57218;DHT22;43078;52.972;6.482;2023-05-07T04:36:18;13.40;99.90
57218;DHT22;43078;52.972;6.482;2023-05-07T04:38:44;13.30;99.90
57218;DHT22;43078;52.972;6.482;2023-05-07T04:41:10;13.40;99.90
57218;DHT22;43078;52.972;6.482;2023-05-07T04:43:35;13.30;99.90
57218;DHT22;43078;52.972;6.482;2023-05-07T04:46:01;13.30;99.90
57218;DHT22;43078;52.972;6.482;2023-05-07T04:48:27;13.30;99.90
57218;DHT22;43078;52.972;6.482;2023-05-07T04:50:55;13.20;99.90
57218;DHT22;43078;52.972;6.482;2023-05-07T04:53:30;13.20;99.90
57218;DHT22;43078;52.972;6.482;2023-05-07T04:55:56;13.20;99.90
57218;DHT22;43078;52.972;6.482;2023-05-07T04:58:22;13.20;99.90
57218;DHT22;43078;52.972;6.482;2023-05-07T05:00:48;13.20;99.90
57218;DHT22;43078;52.972;6.482;2023-05-07T05:03:14;13.20;99.90
57218;DHT22;43078;52.972;6.482;2023-05-07T05:05:39;13.20;99.90
57218;DHT22;43078;52.972;6.482;2023-05-07T05:08:05;13.20;99.90
57218;DHT22;43078;52.972;6.482;2023-05-07T05:10:34;13.20;99.90
57218;DHT22;43078;52.972;6.482;2023-05-07T05:13:01;13.10;99.90
57218;DHT22;43078;52.972;6.482;2023-05-07T05:15:27;13.20;99.90
57218;DHT22;43078;52.972;6.482;2023-05-07T05:17:56;13.10;99.90
57218;DHT22;43078;52.972;6.482;2023-05-07T05:20:21;13.20;99.90
57218;DHT22;43078;52.972;6.482;2023-05-07T05:22:47;13.10;99.90
57218;DHT22;43078;52.972;6.482;2023-05-07T05:25:13;13.10;99.90
57218;DHT22;43078;52.972;6.482;2023-05-07T05:27:39;13.10;99.90
57218;DHT22;43078;52.972;6.482;2023-05-07T05:30:06;13.10;99.90
57218;DHT22;43078;52.972;6.482;2023-05-07T05:32:32;13.10;99.90
57218;DHT22;43078;52.972;6.482;2023-05-07T05:34:57;13.10;99.90
57218;DHT22;43078;52.972;6.482;2023-05-07T05:37:23;13.10;99.90
57218;DHT22;43078;52.972;6.482;2023-05-07T05:39:49;13.10;99.90
57218;DHT22;43078;52.972;6.482;2023-05-07T05:42:14;13.10;99.90
57218;DHT22;43078;52.972;6.482;2023-05-07T05:44:40;13.10;99.90
57218;DHT22;43078;52.972;6.482;2023-05-07T05:47:05;13.10;99.90
57218;DHT22;43078;52.972;6.482;2023-05-07T05:49:31;13.10;99.90
57218;DHT22;43078;52.972;6.482;2023-05-07T05:51:57;13.00;99.90
57218;DHT22;43078;52.972;6.482;2023-05-07T05:54:22;13.00;99.90
57218;DHT22;43078;52.972;6.482;2023-05-07T05:56:48;13.10;99.90
57218;DHT22;43078;52.972;6.482;2023-05-07T05:59:14;13.00;99.90
57218;DHT22;43078;52.972;6.482;2023-05-07T06:01:40;13.00;99.90
57218;DHT22;43078;52.972;6.482;2023-05-07T06:04:06;13.00;99.90
57218;DHT22;43078;52.972;6.482;2023-05-07T06:06:31;13.00;99.90
57218;DHT22;43078;52.972;6.482;2023-05-07T06:08:57;13.00;99.90
57218;DHT22;43078;52.972;6.482;2023-05-07T06:11:23;13.00;99.90
57218;DHT22;43078;52.972;6.482;2023-05-07T06:13:48;13.00;99.90
57218;DHT22;43078;52.972;6.482;2023-05-07T06:16:14;13.00;99.90
57218;DHT22;43078;52.972;6.482;2023-05-07T06:18:42;13.00;99.90
57218;DHT22;43078;52.972;6.482;2023-05-07T06:21:09;13.00;99.90
57218;DHT22;43078;52.972;6.482;2023-05-07T06:23:35;13.00;99.90
57218;DHT22;43078;52.972;6.482;2023-05-07T06:26:00;13.00;99.90
57218;DHT22;43078;52.972;6.482;2023-05-07T06:28:26;12.90;99.90
57218;DHT22;43078;52.972;6.482;2023-05-07T06:30:52;13.00;99.90
57218;DHT22;43078;52.972;6.482;2023-05-07T06:33:18;12.90;99.90
57218;DHT22;43078;52.972;6.482;2023-05-07T06:35:45;13.00;99.90
57218;DHT22;43078;52.972;6.482;2023-05-07T06:38:10;12.90;99.90
57218;DHT22;43078;52.972;6.482;2023-05-07T06:40:37;13.00;99.90
57218;DHT22;43078;52.972;6.482;2023-05-07T06:43:03;12.90;99.90
57218;DHT22;43078;52.972;6.482;2023-05-07T06:45:28;12.90;99.90
57218;DHT22;43078;52.972;6.482;2023-05-07T06:47:54;12.90;99.90
57218;DHT22;43078;52.972;6.482;2023-05-07T06:50:20;12.90;99.90
57218;DHT22;43078;52.972;6.482;2023-05-07T06:52:45;12.90;99.90
57218;DHT22;43078;52.972;6.482;2023-05-07T06:55:14;12.90;99.90
57218;DHT22;43078;52.972;6.482;2023-05-07T06:57:39;12.90;99.90
57218;DHT22;43078;52.972;6.482;2023-05-07T07:00:05;12.90;99.90
57218;DHT22;43078;52.972;6.482;2023-05-07T07:02:34;12.90;99.90
57218;DHT22;43078;52.972;6.482;2023-05-07T07:04:59;12.90;99.90
57218;DHT22;43078;52.972;6.482;2023-05-07T07:07:25;12.90;99.90
57218;DHT22;43078;52.972;6.482;2023-05-07T07:09:51;13.00;99.90
57218;DHT22;43078;52.972;6.482;2023-05-07T07:12:16;12.90;99.90
57218;DHT22;43078;52.972;6.482;2023-05-07T07:14:42;12.90;99.90
57218;DHT22;43078;52.972;6.482;2023-05-07T07:17:08;13.00;99.90
57218;DHT22;43078;52.972;6.482;2023-05-07T07:19:33;12.90;99.90
57218;DHT22;43078;52.972;6.482;2023-05-07T07:21:59;13.00;99.90
57218;DHT22;43078;52.972;6.482;2023-05-07T07:24:24;13.00;99.90
57218;DHT22;43078;52.972;6.482;2023-05-07T07:26:50;13.00;99.90
57218;DHT22;43078;52.972;6.482;2023-05-07T07:29:16;13.00;99.90
57218;DHT22;43078;52.972;6.482;2023-05-07T07:31:41;13.00;99.90
57218;DHT22;43078;52.972;6.482;2023-05-07T07:34:07;13.00;99.90
57218;DHT22;43078;52.972;6.482;2023-05-07T07:36:33;13.10;99.90
57218;DHT22;43078;52.972;6.482;2023-05-07T07:38:58;13.00;99.90
57218;DHT22;43078;52.972;6.482;2023-05-07T07:41:24;13.10;99.90
57218;DHT22;43078;52.972;6.482;2023-05-07T07:43:49;13.20;99.90
57218;DHT22;43078;52.972;6.482;2023-05-07T07:46:17;13.10;99.90
57218;DHT22;43078;52.972;6.482;2023-05-07T07:48:43;13.20;99.90
57218;DHT22;43078;52.972;6.482;2023-05-07T07:51:09;13.20;99.90
57218;DHT22;43078;52.972;6.482;2023-05-07T07:53:37;13.20;99.90
57218;DHT22;43078;52.972;6.482;2023-05-07T07:56:23;13.20;99.90
57218;DHT22;43078;52.972;6.482;2023-05-07T07:58:54;13.20;99.90
57218;DHT22;43078;52.972;6.482;2023-05-07T08:04:46;13.30;99.90
57218;DHT22;43078;52.972;6.482;2023-05-07T08:07:12;13.30;99.90
57218;DHT22;43078;52.972;6.482;2023-05-07T08:09:40;13.30;99.90
57218;DHT22;43078;52.972;6.482;2023-05-07T08:12:12;13.30;99.90
57218;DHT22;43078;52.972;6.482;2023-05-07T08:15:09;13.30;99.90
57218;DHT22;43078;52.972;6.482;2023-05-07T08:20:23;13.40;99.90
57218;DHT22;43078;52.972;6.482;2023-05-07T08:23:05;13.40;99.90
57218;DHT22;43078;52.972;6.482;2023-05-07T08:25:34;13.40;99.90
57218;DHT22;43078;52.972;6.482;2023-05-07T08:28:03;13.40;99.90
57218;DHT22;43078;52.972;6.482;2023-05-07T08:30:32;13.50;99.90
57218;DHT22;43078;52.972;6.482;2023-05-07T08:32:58;13.50;99.90
57218;DHT22;43078;52.972;6.482;2023-05-07T08:35:23;13.60;99.90
57218;DHT22;43078;52.972;6.482;2023-05-07T08:38:09;13.70;99.90
57218;DHT22;43078;52.972;6.482;2023-05-07T08:40:42;13.60;99.90
57218;DHT22;43078;52.972;6.482;2023-05-07T08:43:08;13.70;99.90
57218;DHT22;43078;52.972;6.482;2023-05-07T08:45:40;13.70;99.90
57218;DHT22;43078;52.972;6.482;2023-05-07T08:48:15;13.70;99.90
57218;DHT22;43078;52.972;6.482;2023-05-07T09:00:39;13.80;99.90
57218;DHT22;43078;52.972;6.482;2023-05-07T09:03:32;13.90;99.90
57218;DHT22;43078;52.972;6.482;2023-05-07T09:06:53;13.90;99.90
57218;DHT22;43078;52.972;6.482;2023-05-07T09:09:33;14.00;99.90
57218;DHT22;43078;52.972;6.482;2023-05-07T09:11:59;14.10;99.90
57218;DHT22;43078;52.972;6.482;2023-05-07T09:14:25;14.10;99.90
57218;DHT22;43078;52.972;6.482;2023-05-07T09:16:52;14.10;99.90
57218;DHT22;43078;52.972;6.482;2023-05-07T09:19:23;14.20;99.90
57218;DHT22;43078;52.972;6.482;2023-05-07T09:21:49;14.20;99.90
57218;DHT22;43078;52.972;6.482;2023-05-07T09:24:17;14.20;99.90
57218;DHT22;43078;52.972;6.482;2023-05-07T09:26:43;14.30;99.90
57218;DHT22;43078;52.972;6.482;2023-05-07T09:29:10;14.40;99.90
57218;DHT22;43078;52.972;6.482;2023-05-07T09:31:38;14.50;99.90
57218;DHT22;43078;52.972;6.482;2023-05-07T09:34:05;14.50;99.90
57218;DHT22;43078;52.972;6.482;2023-05-07T09:36:31;14.60;99.90
57218;DHT22;43078;52.972;6.482;2023-05-07T09:38:59;14.70;99.90
57218;DHT22;43078;52.972;6.482;2023-05-07T09:41:26;14.70;99.90
57218;DHT22;43078;52.972;6.482;2023-05-07T09:43:55;14.70;99.90
57218;DHT22;43078;52.972;6.482;2023-05-07T09:46:33;14.80;99.90
57218;DHT22;43078;52.972;6.482;2023-05-07T09:49:02;14.80;99.90
57218;DHT22;43078;52.972;6.482;2023-05-07T09:51:39;14.80;99.90
57218;DHT22;43078;52.972;6.482;2023-05-07T09:54:07;14.90;99.90
57218;DHT22;43078;52.972;6.482;2023-05-07T09:56:33;15.00;99.90
57218;DHT22;43078;52.972;6.482;2023-05-07T09:59:00;15.00;99.90
57218;DHT22;43078;52.972;6.482;2023-05-07T10:01:27;15.10;99.90
57218;DHT22;43078;52.972;6.482;2023-05-07T10:03:53;15.20;99.90
57218;DHT22;43078;52.972;6.482;2023-05-07T10:06:23;15.30;99.90
57218;DHT22;43078;52.972;6.482;2023-05-07T10:08:50;15.30;99.90
57218;DHT22;43078;52.972;6.482;2023-05-07T10:11:16;15.40;99.90
57218;DHT22;43078;52.972;6.482;2023-05-07T10:13:43;15.40;99.90
57218;DHT22;43078;52.972;6.482;2023-05-07T10:16:08;15.50;99.90
57218;DHT22;43078;52.972;6.482;2023-05-07T10:18:34;15.60;99.90
57218;DHT22;43078;52.972;6.482;2023-05-07T10:21:21;15.70;99.90
57218;DHT22;43078;52.972;6.482;2023-05-07T10:23:53;15.80;99.90
57218;DHT22;43078;52.972;6.482;2023-05-07T10:26:23;15.80;99.90
57218;DHT22;43078;52.972;6.482;2023-05-07T10:28:58;15.90;99.90
57218;DHT22;43078;52.972;6.482;2023-05-07T10:32:07;15.90;99.90
57218;DHT22;43078;52.972;6.482;2023-05-07T10:34:39;16.00;99.90
57218;DHT22;43078;52.972;6.482;2023-05-07T10:37:06;16.10;99.90
57218;DHT22;43078;52.972;6.482;2023-05-07T10:39:32;16.10;99.90
57218;DHT22;43078;52.972;6.482;2023-05-07T10:42:08;16.20;99.90
57218;DHT22;43078;52.972;6.482;2023-05-07T10:44:34;16.20;99.90
57218;DHT22;43078;52.972;6.482;2023-05-07T10:47:11;16.30;99.90
57218;DHT22;43078;52.972;6.482;2023-05-07T10:52:31;16.40;99.90
57218;DHT22;43078;52.972;6.482;2023-05-07T10:57:43;16.50;99.90
57218;DHT22;43078;52.972;6.482;2023-05-07T11:05:30;16.80;99.90
57218;DHT22;43078;52.972;6.482;2023-05-07T11:08:00;16.80;99.90
57218;DHT22;43078;52.972;6.482;2023-05-07T11:13:14;16.90;99.90
57218;DHT22;43078;52.972;6.482;2023-05-07T11:15:45;17.00;99.90
57218;DHT22;43078;52.972;6.482;2023-05-07T11:18:12;17.10;99.90
57218;DHT22;43078;52.972;6.482;2023-05-07T11:26:12;17.30;99.90
57218;DHT22;43078;52.972;6.482;2023-05-07T11:29:00;17.30;99.90
57218;DHT22;43078;52.972;6.482;2023-05-07T11:31:53;17.40;99.90
57218;DHT22;43078;52.972;6.482;2023-05-07T11:34:24;17.40;99.90
57218;DHT22;43078;52.972;6.482;2023-05-07T11:36:50;17.50;99.90
57218;DHT22;43078;52.972;6.482;2023-05-07T11:39:30;17.50;99.90
57218;DHT22;43078;52.972;6.482;2023-05-07T11:42:01;17.60;99.90
57218;DHT22;43078;52.972;6.482;2023-05-07T11:44:46;17.60;99.90
57218;DHT22;43078;52.972;6.482;2023-05-07T11:47:20;17.70;99.90
57218;DHT22;43078;52.972;6.482;2023-05-07T11:49:50;17.70;99.90
57218;DHT22;43078;52.972;6.482;2023-05-07T11:52:17;17.80;99.90
57218;DHT22;43078;52.972;6.482;2023-05-07T11:54:53;17.90;99.90
57218;DHT22;43078;52.972;6.482;2023-05-07T11:57:19;17.90;99.90
57218;DHT22;43078;52.972;6.482;2023-05-07T11:59:45;18.00;99.90
57218;DHT22;43078;52.972;6.482;2023-05-07T12:02:14;18.00;99.90
57218;DHT22;43078;52.972;6.482;2023-05-07T12:04:39;18.00;99.90
57218;DHT22;43078;52.972;6.482;2023-05-07T12:07:05;18.10;99.90
57218;DHT22;43078;52.972;6.482;2023-05-07T12:09:32;18.20;99.90
57218;DHT22;43078;52.972;6.482;2023-05-07T12:12:03;18.20;99.90
57218;DHT22;43078;52.972;6.482;2023-05-07T12:14:29;18.30;99.90
57218;DHT22;43078;52.972;6.482;2023-05-07T12:16:55;18.40;99.90
57218;DHT22;43078;52.972;6.482;2023-05-07T12:19:21;18.40;99.90
57218;DHT22;43078;52.972;6.482;2023-05-07T12:21:48;18.40;99.90
57218;DHT22;43078;52.972;6.482;2023-05-07T12:24:14;18.50;99.90
57218;DHT22;43078;52.972;6.482;2023-05-07T12:26:40;18.50;99.90
57218;DHT22;43078;52.972;6.482;2023-05-07T12:29:06;18.60;99.90
57218;DHT22;43078;52.972;6.482;2023-05-07T12:31:32;18.60;99.90
57218;DHT22;43078;52.972;6.482;2023-05-07T12:33:58;18.60;99.90
57218;DHT22;43078;52.972;6.482;2023-05-07T12:36:23;18.70;99.90
57218;DHT22;43078;52.972;6.482;2023-05-07T12:38:50;18.70;99.90
57218;DHT22;43078;52.972;6.482;2023-05-07T12:41:16;18.80;99.80
57218;DHT22;43078;52.972;6.482;2023-05-07T12:43:44;18.80;99.50
57218;DHT22;43078;52.972;6.482;2023-05-07T12:46:11;18.80;99.50
57218;DHT22;43078;52.972;6.482;2023-05-07T12:48:43;18.90;99.80
57218;DHT22;43078;52.972;6.482;2023-05-07T12:51:09;19.00;99.70
57218;DHT22;43078;52.972;6.482;2023-05-07T12:53:40;19.00;99.40
57218;DHT22;43078;52.972;6.482;2023-05-07T12:56:07;19.00;99.10
57218;DHT22;43078;52.972;6.482;2023-05-07T12:58:34;19.10;99.10
57218;DHT22;43078;52.972;6.482;2023-05-07T13:01:04;19.20;99.30
57218;DHT22;43078;52.972;6.482;2023-05-07T13:03:31;19.30;99.20
57218;DHT22;43078;52.972;6.482;2023-05-07T13:06:02;19.30;99.40
57218;DHT22;43078;52.972;6.482;2023-05-07T13:10:56;19.40;98.90
57218;DHT22;43078;52.972;6.482;2023-05-07T13:13:22;19.50;99.40
57218;DHT22;43078;52.972;6.482;2023-05-07T13:15:48;19.60;99.90
57218;DHT22;43078;52.972;6.482;2023-05-07T13:18:14;19.60;99.60
57218;DHT22;43078;52.972;6.482;2023-05-07T13:20:39;19.60;99.60
57218;DHT22;43078;52.972;6.482;2023-05-07T13:23:06;19.70;99.60
57218;DHT22;43078;52.972;6.482;2023-05-07T13:25:31;19.80;99.90
57218;DHT22;43078;52.972;6.482;2023-05-07T13:27:57;19.80;98.80
57218;DHT22;43078;52.972;6.482;2023-05-07T13:30:23;19.80;99.20
57218;DHT22;43078;52.972;6.482;2023-05-07T13:32:48;19.80;99.10
57218;DHT22;43078;52.972;6.482;2023-05-07T13:35:16;19.90;99.70
57218;DHT22;43078;52.972;6.482;2023-05-07T13:37:42;19.90;99.40
57218;DHT22;43078;52.972;6.482;2023-05-07T13:40:08;19.90;99.90
57218;DHT22;43078;52.972;6.482;2023-05-07T13:42:33;20.00;99.90
57218;DHT22;43078;52.972;6.482;2023-05-07T13:44:59;20.10;99.90
57218;DHT22;43078;52.972;6.482;2023-05-07T13:47:25;20.10;99.90
57218;DHT22;43078;52.972;6.482;2023-05-07T13:49:51;20.10;99.90
57218;DHT22;43078;52.972;6.482;2023-05-07T13:52:16;20.20;99.50
57218;DHT22;43078;52.972;6.482;2023-05-07T13:54:42;20.20;99.60
57218;DHT22;43078;52.972;6.482;2023-05-07T13:57:08;20.30;99.90
57218;DHT22;43078;52.972;6.482;2023-05-07T13:59:33;20.30;99.90
57218;DHT22;43078;52.972;6.482;2023-05-07T14:01:59;20.30;98.80
57218;DHT22;43078;52.972;6.482;2023-05-07T14:04:25;20.30;99.20
57218;DHT22;43078;52.972;6.482;2023-05-07T14:06:51;20.40;99.90
57218;DHT22;43078;52.972;6.482;2023-05-07T14:09:16;20.40;99.50
57218;DHT22;43078;52.972;6.482;2023-05-07T14:11:42;20.50;98.60
57218;DHT22;43078;52.972;6.482;2023-05-07T14:14:08;20.50;98.00
57218;DHT22;43078;52.972;6.482;2023-05-07T14:16:36;20.50;98.90
57218;DHT22;43078;52.972;6.482;2023-05-07T14:19:02;20.60;99.30
57218;DHT22;43078;52.972;6.482;2023-05-07T14:21:28;20.60;99.30
57218;DHT22;43078;52.972;6.482;2023-05-07T14:23:53;20.60;99.40
57218;DHT22;43078;52.972;6.482;2023-05-07T14:26:20;20.70;99.40
57218;DHT22;43078;52.972;6.482;2023-05-07T14:28:46;20.70;99.80
57218;DHT22;43078;52.972;6.482;2023-05-07T14:31:12;20.80;99.90
57218;DHT22;43078;52.972;6.482;2023-05-07T14:33:38;20.80;99.90
57218;DHT22;43078;52.972;6.482;2023-05-07T14:36:04;20.80;99.90
57218;DHT22;43078;52.972;6.482;2023-05-07T14:38:30;20.90;99.40
57218;DHT22;43078;52.972;6.482;2023-05-07T14:40:58;20.90;98.00
57218;DHT22;43078;52.972;6.482;2023-05-07T14:43:24;20.90;99.80
57218;DHT22;43078;52.972;6.482;2023-05-07T14:45:49;20.90;99.60
57218;DHT22;43078;52.972;6.482;2023-05-07T14:48:15;21.00;99.90
57218;DHT22;43078;52.972;6.482;2023-05-07T14:50:41;21.00;99.90
57218;DHT22;43078;52.972;6.482;2023-05-07T14:53:07;21.10;98.50
57218;DHT22;43078;52.972;6.482;2023-05-07T14:55:34;21.10;99.90
57218;DHT22;43078;52.972;6.482;2023-05-07T14:58:00;21.10;99.90
57218;DHT22;43078;52.972;6.482;2023-05-07T15:00:26;21.10;99.10
57218;DHT22;43078;52.972;6.482;2023-05-07T15:02:52;21.10;98.80
57218;DHT22;43078;52.972;6.482;2023-05-07T15:05:18;21.10;99.20
57218;DHT22;43078;52.972;6.482;2023-05-07T15:07:44;21.10;99.90
57218;DHT22;43078;52.972;6.482;2023-05-07T15:10:10;21.20;99.90
57218;DHT22;43078;52.972;6.482;2023-05-07T15:12:36;21.30;99.90
57218;DHT22;43078;52.972;6.482;2023-05-07T15:15:02;21.30;98.80
57218;DHT22;43078;52.972;6.482;2023-05-07T15:17:27;21.30;99.90
57218;DHT22;43078;52.972;6.482;2023-05-07T15:19:53;21.30;99.90
57218;DHT22;43078;52.972;6.482;2023-05-07T15:22:19;21.30;99.70
57218;DHT22;43078;52.972;6.482;2023-05-07T15:24:46;21.40;99.90
57218;DHT22;43078;52.972;6.482;2023-05-07T15:27:12;21.50;99.90
57218;DHT22;43078;52.972;6.482;2023-05-07T15:29:38;21.50;99.90
57218;DHT22;43078;52.972;6.482;2023-05-07T15:32:03;21.50;99.90
57218;DHT22;43078;52.972;6.482;2023-05-07T15:34:30;21.50;99.80
57218;DHT22;43078;52.972;6.482;2023-05-07T15:36:56;21.50;99.90
57218;DHT22;43078;52.972;6.482;2023-05-07T15:39:22;21.50;99.00
57218;DHT22;43078;52.972;6.482;2023-05-07T15:41:48;21.50;99.90
57218;DHT22;43078;52.972;6.482;2023-05-07T15:44:14;21.60;99.90
57218;DHT22;43078;52.972;6.482;2023-05-07T15:46:39;21.60;99.90
57218;DHT22;43078;52.972;6.482;2023-05-07T15:52:12;21.70;99.90
57218;DHT22;43078;52.972;6.482;2023-05-07T15:54:41;21.60;99.90
57218;DHT22;43078;52.972;6.482;2023-05-07T15:57:07;21.70;99.90
57218;DHT22;43078;52.972;6.482;2023-05-07T15:59:33;21.70;99.90
57218;DHT22;43078;52.972;6.482;2023-05-07T16:02:00;21.80;99.90
57218;DHT22;43078;52.972;6.482;2023-05-07T16:04:26;21.80;99.90
57218;DHT22;43078;52.972;6.482;2023-05-07T16:06:53;21.80;99.90
57218;DHT22;43078;52.972;6.482;2023-05-07T16:09:19;21.80;99.90
57218;DHT22;43078;52.972;6.482;2023-05-07T16:11:44;21.80;99.90
57218;DHT22;43078;52.972;6.482;2023-05-07T16:14:10;21.80;99.90
57218;DHT22;43078;52.972;6.482;2023-05-07T16:16:36;21.80;99.90
57218;DHT22;43078;52.972;6.482;2023-05-07T16:19:03;21.80;99.90
57218;DHT22;43078;52.972;6.482;2023-05-07T16:21:30;21.80;99.90
57218;DHT22;43078;52.972;6.482;2023-05-07T16:23:55;21.80;99.90
57218;DHT22;43078;52.972;6.482;2023-05-07T16:26:21;21.80;99.90